Aeroporto :
LOGIN :

Iscrizione | Disclaimer

   EN    FR    IT 

 










Sommario :    VFR   VFR Marginale   IFR   IFR Intensivo   IFR Molto Intensivo
Visibilità : 
Base nubi : 
>= 8 km
>= 3000ft
5 / 8 km
1000 / 3000 ft
1500m / 5 km
500 / 1000 ft
800 / 1500m
200 / 500 ft
< 800m
< 200 ft
Simboli :   Temporali  Nebbia  Neve Forte  Precipitazioni Forti  Vento > 20 kt
SIGMETs :   Varie  Temporali  Ghiacco  Turbolenza  Onda orograficha  Ceneri Vulcaniche






- Altitudine del aeroporto : 348 ft
- Codice IATA : STN


EGSS - London Stansted

ULTIMO METAR :
  • 220950Z AUTO 34002KT 0600 R04/1300 FG VV/// 05/05 Q1037

METARs OBSOLETI :
  • 220920Z AUTO 34002KT 0250 R04/0600 FG VV/// 05/05 Q1037
  • 220850Z AUTO 32002KT 0200 R04/0450 FG VV/// 05/05 Q1037
  • 220820Z AUTO 31001KT 0250 R04/0400 FG VV/// 05/05 Q1037
  • 220750Z 28001KT 0200 R04/0400 FG VV/// 05/05 Q1037
  • 220720Z AUTO VRB02KT 0200 R04/0450 FG VV/// 05/05 Q1037

TAF TAF EGSS
Valido dal 22 a 06 ore il 23 a 12 ore UTC


220459Z 2206/2312 31004KT 0200 FG VV///
PROB30
TEMPO 2206/2209 2000 BR SCT001
BECMG 2209/2212 6000 NSW BKN008
TEMPO 2212/2220 9999 SCT018
BECMG 2220/2223 2000 BR BKN002
TEMPO 2223/2310 0200 FG BKN001
PROB30 2310/2312 6000 NSW BKN010
ATIS : +44 1279 669 325



MetMap, La meteo Aeronautica in un colpo d'occhio ! - Copyright ORBIFLY Dicembre 2007 - Disclaimer

ORBIFLY MET'MAP TEAM :

Programmazione e sviluppo : Alexandra Zaïnal
Concezione : Baudouin d'Aumeries
Aiuto per la programmazione : Marc-Olivier Méhu
Supporto tecnico e logistico : Manuel Goepfert
Aiuto per la traduzione : Arnaldo La Scala

Contatto : metmap@orbifly.com




FONTI E CREDITI :

   NOAA